createdAt,value
2018-10-18T00:00:20.618Z,12.82
2018-10-18T00:01:20.869Z,12.8
2018-10-18T00:02:21.072Z,12.85
2018-10-18T00:03:21.445Z,12.79
2018-10-18T00:04:20.862Z,12.72
2018-10-18T00:05:21.128Z,12.75
2018-10-18T00:06:21.480Z,12.78
2018-10-18T00:07:20.850Z,12.7
2018-10-18T00:08:20.854Z,12.64
2018-10-18T00:09:21.114Z,12.61
2018-10-18T00:10:21.110Z,12.65
2018-10-18T00:11:21.096Z,12.65
2018-10-18T00:12:21.150Z,12.6
2018-10-18T00:13:20.849Z,12.64
2018-10-18T00:14:21.484Z,12.6
2018-10-18T00:15:20.867Z,12.5
2018-10-18T00:16:20.817Z,12.47
2018-10-18T00:17:20.824Z,12.46
2018-10-18T00:18:20.570Z,12.46
2018-10-18T00:19:20.809Z,12.49
2018-10-18T00:20:20.864Z,12.47
2018-10-18T00:21:20.570Z,12.54
2018-10-18T00:22:20.805Z,12.45
2018-10-18T00:23:20.807Z,12.46
2018-10-18T00:24:20.934Z,12.43
2018-10-18T00:25:20.798Z,12.47
2018-10-18T00:26:21.258Z,12.49
2018-10-18T00:27:21.057Z,12.53
2018-10-18T00:28:21.084Z,12.49
2018-10-18T00:29:20.787Z,12.49
2018-10-18T00:30:21.107Z,12.47
2018-10-18T00:31:20.789Z,12.49
2018-10-18T00:32:21.153Z,12.47
2018-10-18T00:33:20.517Z,12.5
2018-10-18T00:34:20.775Z,12.43
2018-10-18T00:35:21.041Z,12.46
2018-10-18T00:36:21.426Z,12.49
2018-10-18T00:37:21.025Z,12.53
2018-10-18T00:38:20.980Z,12.5
2018-10-18T00:39:21.024Z,12.45
2018-10-18T00:40:20.755Z,12.53
2018-10-18T00:41:21.003Z,12.46
2018-10-18T00:42:21.376Z,12.46
2018-10-18T00:43:20.737Z,12.5
2018-10-18T00:44:21.344Z,12.36
2018-10-18T00:45:20.996Z,12.42
2018-10-18T00:46:21.000Z,12.53
2018-10-18T00:47:20.727Z,12.45
2018-10-18T00:48:21.159Z,12.47
2018-10-18T00:49:20.725Z,12.45
2018-10-18T00:50:20.857Z,12.49
2018-10-18T00:51:20.992Z,12.46
2018-10-18T00:52:20.963Z,12.49
2018-10-18T00:53:20.503Z,12.47
2018-10-18T00:54:20.704Z,12.39
2018-10-18T00:55:20.715Z,12.53
2018-10-18T00:56:21.150Z,12.45
2018-10-18T00:57:20.690Z,12.46
2018-10-18T00:58:20.688Z,12.37
2018-10-18T00:59:20.474Z,12.46
2018-10-18T01:00:21.373Z,12.46
2018-10-18T01:01:20.946Z,12.46
2018-10-18T01:02:20.886Z,12.49
2018-10-18T01:03:20.681Z,12.53
2018-10-18T01:04:20.676Z,12.47
2018-10-18T01:05:20.691Z,12.49
2018-10-18T01:06:21.432Z,12.5
2018-10-18T01:07:20.444Z,12.47
2018-10-18T01:08:21.090Z,12.49
2018-10-18T01:09:20.682Z,12.46
2018-10-18T01:10:20.646Z,12.47
2018-10-18T01:11:20.401Z,12.4
2018-10-18T01:12:22.371Z,12.55
2018-10-18T01:13:20.903Z,12.53
2018-10-18T01:14:20.785Z,12.47
2018-10-18T01:15:20.888Z,12.53
2018-10-18T01:16:20.620Z,12.47
2018-10-18T01:17:20.879Z,12.55
2018-10-18T01:18:20.364Z,12.58
2018-10-18T01:19:20.616Z,12.54
2018-10-18T01:20:21.232Z,12.55
2018-10-18T01:21:20.603Z,12.43
2018-10-18T01:22:20.609Z,12.49
2018-10-18T01:23:20.871Z,12.43
2018-10-18T01:24:20.987Z,12.47
2018-10-18T01:25:20.863Z,12.5
2018-10-18T01:26:20.714Z,12.45
2018-10-18T01:27:20.590Z,12.4
2018-10-18T01:28:20.858Z,12.36
2018-10-18T01:29:20.577Z,12.28
2018-10-18T01:30:20.805Z,12.35
2018-10-18T01:31:20.577Z,12.31
2018-10-18T01:32:21.632Z,12.39
2018-10-18T01:33:20.822Z,12.39
2018-10-18T01:34:20.825Z,12.31
2018-10-18T01:35:20.822Z,12.35
2018-10-18T01:36:21.082Z,12.28
2018-10-18T01:37:20.820Z,12.35
2018-10-18T01:38:20.742Z,12.27
2018-10-18T01:39:20.552Z,12.39
2018-10-18T01:40:20.544Z,12.31
2018-10-18T01:41:20.818Z,12.42
2018-10-18T01:42:21.173Z,12.47
2018-10-18T01:43:20.537Z,12.4
2018-10-18T01:44:21.034Z,12.42
2018-10-18T01:45:20.285Z,12.37
2018-10-18T01:46:20.783Z,12.37
2018-10-18T01:47:20.777Z,12.43
2018-10-18T01:48:20.666Z,12.39
2018-10-18T01:49:20.521Z,12.4
2018-10-18T01:50:21.128Z,12.39
2018-10-18T01:51:20.516Z,12.36
2018-10-18T01:52:20.518Z,12.22
2018-10-18T01:53:20.500Z,12.39
2018-10-18T01:54:21.090Z,12.42
2018-10-18T01:55:20.511Z,12.37
2018-10-18T01:56:20.510Z,12.35
2018-10-18T01:57:20.740Z,12.22
2018-10-18T01:58:20.750Z,12.2
2018-10-18T01:59:20.732Z,12.27
2018-10-18T02:00:21.096Z,12.25
2018-10-18T02:01:20.519Z,12.22
2018-10-18T02:02:20.663Z,12.24
2018-10-18T02:03:20.733Z,12.22
2018-10-18T02:04:20.214Z,12.15
2018-10-18T02:05:20.727Z,12.18
2018-10-18T02:06:21.134Z,12.15
2018-10-18T02:07:20.716Z,12.18
2018-10-18T02:08:21.201Z,12.18
2018-10-18T02:09:20.712Z,12.2
2018-10-18T02:10:20.702Z,12.15
2018-10-18T02:11:20.475Z,12.15
2018-10-18T02:12:20.629Z,12.18
2018-10-18T02:13:20.446Z,12.2
2018-10-18T02:14:20.706Z,12.2
2018-10-18T02:15:20.693Z,12.22
2018-10-18T02:16:20.448Z,12.21
2018-10-18T02:17:20.441Z,12.2
2018-10-18T02:18:21.008Z,12.13
2018-10-18T02:19:21.128Z,12.12
2018-10-18T02:20:20.680Z,12.07
2018-10-18T02:21:20.424Z,12.09
2018-10-18T02:22:20.429Z,12.09
2018-10-18T02:23:20.649Z,12.06
2018-10-18T02:24:20.635Z,12.04
2018-10-18T02:25:20.605Z,12.12
2018-10-18T02:26:20.426Z,12.04
2018-10-18T02:27:20.634Z,12.12
2018-10-18T02:28:20.374Z,12.07
2018-10-18T02:29:20.625Z,12.04
2018-10-18T02:30:21.071Z,12.15
2018-10-18T02:31:20.392Z,12.1
2018-10-18T02:32:20.616Z,12.15
2018-10-18T02:33:20.388Z,12.09
2018-10-18T02:34:20.088Z,12.07
2018-10-18T02:35:20.369Z,12.09
2018-10-18T02:36:20.570Z,12.04
2018-10-18T02:37:20.599Z,12.17
2018-10-18T02:38:20.099Z,12.06
2018-10-18T02:39:20.592Z,12.07
2018-10-18T02:40:20.586Z,12.07
2018-10-18T02:41:20.578Z,12.06
2018-10-18T02:42:21.023Z,12.09
2018-10-18T02:43:20.578Z,11.95
2018-10-18T02:44:20.591Z,12.09
2018-10-18T02:45:20.060Z,11.99
2018-10-18T02:46:20.316Z,12.03
2018-10-18T02:47:20.049Z,12.02
2018-10-18T02:48:20.903Z,12.07
2018-10-18T02:49:20.563Z,12.04
2018-10-18T02:50:20.574Z,11.94
2018-10-18T02:51:20.312Z,11.99
2018-10-18T02:52:20.548Z,12.02
2018-10-18T02:53:20.556Z,12.07
2018-10-18T02:54:21.117Z,12.04
2018-10-18T02:55:20.540Z,12.02
2018-10-18T02:56:20.300Z,12
2018-10-18T02:57:20.276Z,11.97
2018-10-18T02:58:20.282Z,11.97
2018-10-18T02:59:20.289Z,11.97
2018-10-18T03:00:20.440Z,11.84
2018-10-18T03:01:20.264Z,11.97
2018-10-18T03:02:19.999Z,12
2018-10-18T03:03:20.518Z,11.97
2018-10-18T03:04:20.527Z,11.94
2018-10-18T03:05:20.251Z,11.94
2018-10-18T03:06:20.954Z,11.91
2018-10-18T03:07:20.491Z,11.94
2018-10-18T03:08:20.492Z,11.95
2018-10-18T03:09:20.488Z,12.03
2018-10-18T03:10:20.497Z,11.97
2018-10-18T03:11:20.496Z,11.88
2018-10-18T03:12:20.577Z,11.87
2018-10-18T03:13:20.221Z,11.94
2018-10-18T03:14:20.483Z,11.81
2018-10-18T03:15:20.209Z,11.84
2018-10-18T03:16:20.464Z,11.86
2018-10-18T03:17:20.454Z,11.78
2018-10-18T03:18:20.407Z,11.87
2018-10-18T03:19:20.451Z,11.87
2018-10-18T03:20:20.459Z,11.86
2018-10-18T03:21:20.176Z,11.81
2018-10-18T03:22:20.452Z,11.87
2018-10-18T03:23:20.454Z,11.83
2018-10-18T03:24:20.412Z,11.81
2018-10-18T03:25:20.172Z,11.83
2018-10-18T03:26:20.161Z,11.75
2018-10-18T03:27:20.418Z,11.78
2018-10-18T03:28:20.461Z,11.86
2018-10-18T03:29:20.419Z,11.81
2018-10-18T03:30:20.510Z,11.83
2018-10-18T03:31:20.140Z,11.8
2018-10-18T03:32:20.139Z,11.86
2018-10-18T03:33:20.409Z,11.83
2018-10-18T03:34:20.124Z,11.84
2018-10-18T03:35:20.378Z,11.87
2018-10-18T03:36:20.866Z,11.83
2018-10-18T03:37:20.407Z,11.81
2018-10-18T03:38:20.117Z,11.87
2018-10-18T03:39:20.112Z,11.83
2018-10-18T03:40:20.130Z,11.84
2018-10-18T03:41:20.483Z,11.83
2018-10-18T03:42:20.755Z,11.83
2018-10-18T03:43:20.095Z,11.83
2018-10-18T03:44:20.360Z,11.86
2018-10-18T03:45:20.106Z,11.83
2018-10-18T03:46:20.084Z,11.8
2018-10-18T03:47:20.075Z,11.8
2018-10-18T03:48:20.478Z,11.75
2018-10-18T03:49:20.369Z,11.78
2018-10-18T03:50:20.065Z,11.83
2018-10-18T03:51:19.803Z,11.87
2018-10-18T03:52:20.069Z,11.78
2018-10-18T03:53:20.319Z,11.87
2018-10-18T03:54:20.704Z,11.88
2018-10-18T03:55:20.332Z,11.83
2018-10-18T03:56:20.319Z,11.94
2018-10-18T03:57:20.311Z,11.95
2018-10-18T03:58:20.334Z,11.9
2018-10-18T03:59:20.319Z,11.83
2018-10-18T04:00:20.340Z,11.8
2018-10-18T04:01:19.773Z,11.8
2018-10-18T04:02:19.773Z,11.83
2018-10-18T04:03:20.038Z,11.86
2018-10-18T04:04:20.024Z,11.86
2018-10-18T04:05:20.017Z,11.8
2018-10-18T04:06:20.234Z,11.8
2018-10-18T04:07:20.303Z,11.73
2018-10-18T04:08:19.998Z,11.77
2018-10-18T04:09:20.000Z,11.77
2018-10-18T04:10:20.001Z,11.73
2018-10-18T04:11:20.263Z,11.75
2018-10-18T04:12:20.774Z,11.73
2018-10-18T04:13:20.545Z,11.75
2018-10-18T04:14:19.984Z,11.69
2018-10-18T04:15:20.243Z,11.68
2018-10-18T04:16:20.232Z,11.66
2018-10-18T04:17:19.983Z,11.69
2018-10-18T04:18:20.296Z,11.69
2018-10-18T04:19:20.237Z,11.7
2018-10-18T04:20:20.233Z,11.66
2018-10-18T04:21:19.948Z,11.68
2018-10-18T04:22:20.208Z,11.66
2018-10-18T04:23:19.688Z,11.63
2018-10-18T04:24:20.136Z,11.55
2018-10-18T04:25:20.225Z,11.63
2018-10-18T04:26:19.945Z,11.62
2018-10-18T04:27:20.181Z,11.57
2018-10-18T04:28:20.178Z,11.63
2018-10-18T04:29:20.177Z,11.55
2018-10-18T04:30:20.504Z,11.68
2018-10-18T04:31:20.167Z,11.68
2018-10-18T04:32:20.178Z,11.55
2018-10-18T04:33:19.666Z,11.52
2018-10-18T04:34:20.163Z,11.63
2018-10-18T04:35:20.160Z,11.62
2018-10-18T04:36:20.121Z,11.54
2018-10-18T04:37:20.079Z,11.51
2018-10-18T04:38:19.637Z,11.54
2018-10-18T04:39:19.889Z,11.52
2018-10-18T04:40:20.134Z,11.51
2018-10-18T04:41:19.888Z,11.5
2018-10-18T04:42:20.456Z,11.51
2018-10-18T04:43:19.869Z,11.55
2018-10-18T04:44:19.861Z,11.55
2018-10-18T04:45:20.108Z,11.57
2018-10-18T04:46:20.102Z,11.55
2018-10-18T04:47:20.595Z,11.54
2018-10-18T04:48:20.627Z,11.55
2018-10-18T04:49:19.838Z,11.48
2018-10-18T04:50:20.094Z,11.57
2018-10-18T04:51:19.584Z,11.59
2018-10-18T04:52:20.078Z,11.51
2018-10-18T04:53:20.095Z,11.65
2018-10-18T04:54:19.827Z,11.59
2018-10-18T04:55:20.287Z,11.63
2018-10-18T04:56:20.089Z,11.68
2018-10-18T04:57:19.551Z,11.69
2018-10-18T04:58:20.069Z,11.8
2018-10-18T04:59:20.061Z,11.75
2018-10-18T05:00:20.064Z,11.78
2018-10-18T05:01:20.784Z,11.72
2018-10-18T05:02:19.786Z,11.72
2018-10-18T05:03:19.778Z,11.73
2018-10-18T05:04:19.794Z,11.75
2018-10-18T05:05:20.055Z,11.66
2018-10-18T05:06:19.774Z,11.7
2018-10-18T05:07:20.507Z,11.6
2018-10-18T05:08:19.772Z,11.59
2018-10-18T05:09:19.772Z,11.54
2018-10-18T05:10:20.034Z,11.55
2018-10-18T05:11:20.410Z,11.59
2018-10-18T05:12:20.014Z,11.48
2018-10-18T05:13:19.998Z,11.51
2018-10-18T05:14:19.504Z,11.47
2018-10-18T05:15:20.001Z,11.4
2018-10-18T05:16:19.734Z,11.48
2018-10-18T05:17:19.730Z,11.4
2018-10-18T05:18:19.735Z,11.45
2018-10-18T05:19:19.911Z,11.41
2018-10-18T05:20:19.720Z,11.4
2018-10-18T05:21:19.729Z,11.37
2018-10-18T05:22:19.979Z,11.41
2018-10-18T05:23:19.708Z,11.51
2018-10-18T05:24:19.713Z,11.41
2018-10-18T05:25:20.624Z,11.44
2018-10-18T05:26:19.722Z,11.43
2018-10-18T05:27:19.973Z,11.35
2018-10-18T05:28:19.427Z,11.32
2018-10-18T05:29:19.687Z,11.4
2018-10-18T05:30:19.975Z,11.4
2018-10-18T05:31:19.966Z,11.32
2018-10-18T05:32:19.929Z,11.33
2018-10-18T05:33:19.705Z,11.4
2018-10-18T05:34:19.411Z,11.36
2018-10-18T05:35:19.417Z,11.45
2018-10-18T05:36:19.415Z,11.41
2018-10-18T05:37:20.375Z,11.43
2018-10-18T05:38:19.914Z,11.43
2018-10-18T05:39:19.652Z,11.44
2018-10-18T05:40:19.651Z,11.4
2018-10-18T05:41:19.938Z,11.44
2018-10-18T05:42:19.635Z,11.36
2018-10-18T05:43:20.421Z,11.33
2018-10-18T05:44:19.365Z,11.35
2018-10-18T05:45:19.882Z,11.37
2018-10-18T05:46:19.652Z,11.32
2018-10-18T05:47:19.838Z,11.35
2018-10-18T05:48:19.876Z,11.4
2018-10-18T05:49:20.557Z,11.43
2018-10-18T05:50:19.361Z,11.43
2018-10-18T05:51:19.597Z,11.41
2018-10-18T05:52:19.854Z,11.32
2018-10-18T05:53:20.435Z,11.35
2018-10-18T05:54:20.388Z,11.33
2018-10-18T05:55:20.175Z,11.36
2018-10-18T05:56:19.845Z,11.37
2018-10-18T05:57:19.828Z,11.45
2018-10-18T05:58:19.842Z,11.36
2018-10-18T05:59:19.591Z,11.41
2018-10-18T06:00:20.476Z,11.4
2018-10-18T06:01:20.245Z,11.47
2018-10-18T06:02:19.574Z,11.4
2018-10-18T06:03:19.297Z,11.43
2018-10-18T06:04:19.822Z,11.41
2018-10-18T06:05:19.538Z,11.44
2018-10-18T06:06:19.284Z,11.51
2018-10-18T06:07:20.195Z,11.52
2018-10-18T06:08:19.779Z,11.54
2018-10-18T06:09:19.536Z,11.54
2018-10-18T06:10:20.290Z,11.59
2018-10-18T06:11:19.771Z,11.52
2018-10-18T06:12:19.523Z,11.51
2018-10-18T06:13:20.230Z,11.47
2018-10-18T06:14:19.517Z,11.48
2018-10-18T06:15:19.760Z,11.48
2018-10-18T06:16:19.509Z,11.4
2018-10-18T06:17:19.486Z,11.45
2018-10-18T06:18:19.753Z,11.44
2018-10-18T06:19:19.819Z,11.5
2018-10-18T06:20:19.475Z,11.54
2018-10-18T06:21:19.729Z,11.52
2018-10-18T06:22:19.740Z,11.6
2018-10-18T06:23:20.061Z,11.75
2018-10-18T06:24:19.478Z,11.73
2018-10-18T06:25:20.159Z,11.83
2018-10-18T06:26:19.456Z,11.8
2018-10-18T06:27:19.201Z,11.86
2018-10-18T06:28:19.464Z,11.91
2018-10-18T06:29:19.950Z,11.91
2018-10-18T06:30:19.439Z,12.04
2018-10-18T06:31:19.709Z,12.03
2018-10-18T06:32:19.177Z,12.09
2018-10-18T06:33:19.191Z,12.13
2018-10-18T06:34:19.701Z,12.18
2018-10-18T06:35:19.426Z,12.25
2018-10-18T06:36:19.685Z,12.21
2018-10-18T06:37:20.231Z,12.24
2018-10-18T06:38:19.686Z,12.31
2018-10-18T06:39:19.653Z,12.37
2018-10-18T06:40:19.660Z,12.36
2018-10-18T06:41:19.649Z,12.21
2018-10-18T06:42:19.649Z,12.36
2018-10-18T06:43:19.953Z,12.39
2018-10-18T06:44:19.652Z,12.47
2018-10-18T06:45:19.128Z,12.45
2018-10-18T06:46:19.382Z,12.46
2018-10-18T06:47:19.838Z,12.47
2018-10-18T06:48:19.647Z,12.5
2018-10-18T06:49:20.219Z,12.62
2018-10-18T06:50:19.117Z,12.61
2018-10-18T06:51:19.386Z,12.67
2018-10-18T06:52:19.383Z,12.65
2018-10-18T06:53:19.105Z,12.67
2018-10-18T06:54:19.543Z,12.73
2018-10-18T06:55:20.060Z,12.67
2018-10-18T06:56:19.381Z,12.73
2018-10-18T06:57:19.098Z,12.73
2018-10-18T06:58:19.596Z,12.68
2018-10-18T06:59:19.355Z,12.79
2018-10-18T07:00:19.159Z,12.8
2018-10-18T07:01:19.592Z,12.86
2018-10-18T07:02:19.327Z,12.82
2018-10-18T07:03:19.580Z,12.91
2018-10-18T07:04:19.328Z,13
2018-10-18T07:05:19.589Z,13.16
2018-10-18T07:06:19.582Z,13.19
2018-10-18T07:07:19.332Z,13.3
2018-10-18T07:08:19.065Z,13.37
2018-10-18T07:09:19.586Z,13.52
2018-10-18T07:10:19.311Z,13.52
2018-10-18T07:11:19.322Z,13.6
2018-10-18T07:12:19.520Z,13.68
2018-10-18T07:13:19.565Z,13.65
2018-10-18T07:14:19.306Z,13.78
2018-10-18T07:15:19.300Z,13.85
2018-10-18T07:16:19.556Z,13.96
2018-10-18T07:17:19.046Z,14.1
2018-10-18T07:18:19.928Z,14.12
2018-10-18T07:19:19.031Z,14.12
2018-10-18T07:20:19.293Z,14.15
2018-10-18T07:21:19.043Z,14.2
2018-10-18T07:22:19.283Z,14.17
2018-10-18T07:23:19.282Z,14.17
2018-10-18T07:24:19.620Z,14.3
2018-10-18T07:25:19.765Z,14.37
2018-10-18T07:26:19.540Z,14.36
2018-10-18T07:27:19.287Z,14.32
2018-10-18T07:28:19.551Z,14.29
2018-10-18T07:29:19.541Z,14.22
2018-10-18T07:30:19.476Z,14.3
2018-10-18T07:31:19.018Z,14.25
2018-10-18T07:32:19.522Z,14.37
2018-10-18T07:33:19.535Z,14.45
2018-10-18T07:34:19.269Z,14.47
2018-10-18T07:35:19.350Z,14.44
2018-10-18T07:36:19.917Z,14.5
2018-10-18T07:37:19.572Z,14.44
2018-10-18T07:38:19.265Z,14.43
2018-10-18T07:39:19.258Z,14.51
2018-10-18T07:40:19.506Z,14.48
2018-10-18T07:41:20.078Z,14.54
2018-10-18T07:42:19.861Z,14.44
2018-10-18T07:43:19.245Z,14.62
2018-10-18T07:44:19.520Z,14.58
2018-10-18T07:45:19.156Z,14.65
2018-10-18T07:46:18.984Z,14.82
2018-10-18T07:47:19.263Z,14.91
2018-10-18T07:48:19.849Z,14.96
2018-10-18T07:49:19.515Z,15.03
2018-10-18T07:50:19.508Z,15.19
2018-10-18T07:51:19.250Z,15.46
2018-10-18T07:52:19.242Z,15.65
2018-10-18T07:53:20.223Z,15.77
2018-10-18T07:54:19.940Z,16.1
2018-10-18T07:55:19.238Z,16.05
2018-10-18T07:56:19.239Z,16.04
2018-10-18T07:57:18.975Z,16.09
2018-10-18T07:58:19.251Z,16.02
2018-10-18T07:59:18.976Z,16.04
2018-10-18T08:00:19.661Z,16.01
2018-10-18T08:01:19.242Z,16.05
2018-10-18T08:02:19.239Z,16.04
2018-10-18T08:03:19.503Z,16
2018-10-18T08:04:19.230Z,15.91
2018-10-18T08:05:19.516Z,15.95
2018-10-18T08:06:18.977Z,15.94
2018-10-18T08:07:18.991Z,15.92
2018-10-18T08:08:19.235Z,15.98
2018-10-18T08:09:19.264Z,15.95
2018-10-18T08:10:19.229Z,15.94
2018-10-18T08:11:19.230Z,15.91
2018-10-18T08:12:19.481Z,15.86
2018-10-18T08:13:19.918Z,15.73
2018-10-18T08:14:19.342Z,15.65
2018-10-18T08:15:19.231Z,15.61
2018-10-18T08:16:19.514Z,15.4
2018-10-18T08:17:20.042Z,15.44
2018-10-18T08:18:19.532Z,15.51
2018-10-18T08:19:19.574Z,15.39
2018-10-18T08:20:19.240Z,15.39
2018-10-18T08:21:19.247Z,15.24
2018-10-18T08:22:19.519Z,15.29
2018-10-18T08:23:19.229Z,15.25
2018-10-18T08:24:19.248Z,15.25
2018-10-18T08:25:19.954Z,15.37
2018-10-18T08:26:19.237Z,15.28
2018-10-18T08:27:19.480Z,15.24
2018-10-18T08:28:19.253Z,15.25
2018-10-18T08:29:19.226Z,15.19
2018-10-18T08:30:18.972Z,15.24
2018-10-18T08:31:20.148Z,15.22
2018-10-18T08:32:19.495Z,15.14
2018-10-18T08:33:19.475Z,15.24
2018-10-18T08:34:19.229Z,15.11
2018-10-18T08:35:19.001Z,15.19
2018-10-18T08:36:19.478Z,15.22
2018-10-18T08:37:19.451Z,15.24
2018-10-18T08:38:20.063Z,15.18
2018-10-18T08:39:19.229Z,15.28
2018-10-18T08:40:19.238Z,15.28
2018-10-18T08:41:19.233Z,15.39
2018-10-18T08:42:19.233Z,15.42
2018-10-18T08:43:19.406Z,15.46
2018-10-18T08:44:19.333Z,15.44
2018-10-18T08:45:19.215Z,15.43
2018-10-18T08:46:19.471Z,15.51
2018-10-18T08:47:19.210Z,15.54
2018-10-18T08:48:19.479Z,15.55
2018-10-18T08:49:19.417Z,15.61
2018-10-18T08:50:19.488Z,15.76
2018-10-18T08:51:19.214Z,15.64
2018-10-18T08:52:19.471Z,15.75
2018-10-18T08:53:19.224Z,15.84
2018-10-18T08:54:19.465Z,15.95
2018-10-18T08:55:19.536Z,15.98
2018-10-18T08:56:19.239Z,15.92
2018-10-18T08:57:18.960Z,15.94
2018-10-18T08:58:18.940Z,16.04
2018-10-18T08:59:19.929Z,16.1
2018-10-18T09:00:19.478Z,16.17
2018-10-18T09:01:20.005Z,16.31
2018-10-18T09:02:19.220Z,16.35
2018-10-18T09:03:19.254Z,16.39
2018-10-18T09:04:18.958Z,16.41
2018-10-18T09:05:19.458Z,16.53
2018-10-18T09:06:19.458Z,16.49
2018-10-18T09:07:19.852Z,16.61
2018-10-18T09:08:19.222Z,16.53
2018-10-18T09:09:19.443Z,16.64
2018-10-18T09:10:19.473Z,16.71
2018-10-18T09:11:19.196Z,16.66
2018-10-18T09:12:19.475Z,16.76
2018-10-18T09:13:19.842Z,16.76
2018-10-18T09:14:19.201Z,16.75
2018-10-18T09:15:19.233Z,16.69
2018-10-18T09:16:19.217Z,16.79
2018-10-18T09:17:19.195Z,16.76
2018-10-18T09:18:18.952Z,16.76
2018-10-18T09:19:19.710Z,16.57
2018-10-18T09:20:19.488Z,16.47
2018-10-18T09:21:19.461Z,16.36
2018-10-18T09:22:18.945Z,16.41
2018-10-18T09:23:19.199Z,16.42
2018-10-18T09:24:19.477Z,16.53
2018-10-18T09:25:19.394Z,16.57
2018-10-18T09:26:19.213Z,16.53
2018-10-18T09:27:19.454Z,16.53
2018-10-18T09:28:19.208Z,16.5
2018-10-18T09:29:18.954Z,16.53
2018-10-18T09:30:19.722Z,16.5
2018-10-18T09:31:19.497Z,16.5
2018-10-18T09:32:19.459Z,16.47
2018-10-18T09:33:19.193Z,16.49
2018-10-18T09:34:19.450Z,16.6
2018-10-18T09:35:19.473Z,16.76
2018-10-18T09:36:18.951Z,16.83
2018-10-18T09:37:19.920Z,16.89
2018-10-18T09:38:19.280Z,16.96
2018-10-18T09:39:19.206Z,17.09
2018-10-18T09:40:19.474Z,17.09
2018-10-18T09:41:19.454Z,17.12
2018-10-18T09:42:19.457Z,17.2
2018-10-18T09:43:19.855Z,17.16
2018-10-18T09:44:19.345Z,17.2
2018-10-18T09:45:19.472Z,17.19
2018-10-18T09:46:19.458Z,17.16
2018-10-18T09:47:19.450Z,17.15
2018-10-18T09:48:19.202Z,17.11
2018-10-18T09:49:19.840Z,17.05
2018-10-18T09:50:19.466Z,16.94
2018-10-18T09:51:19.449Z,16.96
2018-10-18T09:52:19.450Z,17.04
2018-10-18T09:53:19.226Z,16.97
2018-10-18T09:54:19.464Z,16.94
2018-10-18T09:55:19.971Z,16.94
2018-10-18T09:56:19.969Z,17.01
2018-10-18T09:57:19.220Z,17.02
2018-10-18T09:58:19.456Z,17.2
2018-10-18T09:59:19.453Z,17.22
2018-10-18T10:00:19.462Z,17.3
2018-10-18T10:01:19.449Z,17.2
2018-10-18T10:02:19.463Z,17.3
2018-10-18T10:03:18.957Z,17.38
2018-10-18T10:04:19.768Z,17.46
2018-10-18T10:05:19.213Z,17.51
2018-10-18T10:06:19.464Z,17.57
2018-10-18T10:07:19.742Z,17.65
2018-10-18T10:08:19.472Z,17.6
2018-10-18T10:09:19.458Z,17.74
2018-10-18T10:10:19.463Z,17.79
2018-10-18T10:11:19.486Z,17.79
2018-10-18T10:12:19.471Z,17.8
2018-10-18T10:13:19.630Z,17.74
2018-10-18T10:14:19.212Z,17.7
2018-10-18T10:15:19.205Z,17.7
2018-10-18T10:16:19.215Z,17.82
2018-10-18T10:17:19.813Z,17.85
2018-10-18T10:18:19.432Z,17.78
2018-10-18T10:19:19.451Z,17.78
2018-10-18T10:20:19.471Z,17.8
2018-10-18T10:21:19.218Z,17.7
2018-10-18T10:22:19.216Z,17.71
2018-10-18T10:23:19.483Z,17.7
2018-10-18T10:24:19.470Z,17.67
2018-10-18T10:25:19.561Z,17.78
2018-10-18T10:26:18.972Z,17.86
2018-10-18T10:27:19.230Z,17.94
2018-10-18T10:28:19.225Z,18.05
2018-10-18T10:29:19.480Z,18.03
2018-10-18T10:30:19.492Z,18.03
2018-10-18T10:31:19.533Z,17.94
2018-10-18T10:32:19.475Z,17.92
2018-10-18T10:33:19.591Z,17.87
2018-10-18T10:34:19.258Z,18.03
2018-10-18T10:35:19.460Z,18.01
2018-10-18T10:36:19.306Z,18.15
2018-10-18T10:37:19.762Z,18.08
2018-10-18T10:38:19.474Z,18.19
2018-10-18T10:39:19.921Z,18.31
2018-10-18T10:40:19.931Z,18.34
2018-10-18T10:41:19.764Z,18.44
2018-10-18T10:42:19.539Z,18.41
2018-10-18T10:43:19.222Z,18.41
2018-10-18T10:44:19.523Z,18.55
2018-10-18T10:45:19.589Z,18.47
2018-10-18T10:46:19.828Z,18.38
2018-10-18T10:47:19.475Z,18.26
2018-10-18T10:48:19.868Z,18.22
2018-10-18T10:49:19.957Z,18.25
2018-10-18T10:50:19.504Z,18.28
2018-10-18T10:51:19.613Z,18.35
2018-10-18T10:52:19.100Z,18.4
2018-10-18T10:53:19.231Z,18.38
2018-10-18T10:54:19.551Z,18.53
2018-10-18T10:55:19.254Z,18.55
2018-10-18T10:56:19.515Z,18.59
2018-10-18T10:57:19.169Z,18.71
2018-10-18T10:58:19.499Z,18.84
2018-10-18T10:59:19.238Z,18.86
2018-10-18T11:00:19.896Z,18.95
2018-10-18T11:01:19.240Z,19.02
2018-10-18T11:02:19.941Z,19.11
2018-10-18T11:03:19.543Z,19.14
2018-10-18T11:04:19.501Z,19.04
2018-10-18T11:05:19.017Z,18.96
2018-10-18T11:06:19.975Z,18.95
2018-10-18T11:07:19.253Z,18.95
2018-10-18T11:08:19.435Z,18.89
2018-10-18T11:09:19.661Z,18.95
2018-10-18T11:10:19.346Z,18.89
2018-10-18T11:11:19.246Z,18.96
2018-10-18T11:12:19.769Z,18.92
2018-10-18T11:13:19.260Z,18.96
2018-10-18T11:14:19.416Z,19.09
2018-10-18T11:15:19.985Z,19.08
2018-10-18T11:16:19.260Z,19.15
2018-10-18T11:17:19.980Z,19.22
2018-10-18T11:18:19.976Z,19.3
2018-10-18T11:19:19.284Z,19.3
2018-10-18T11:20:19.786Z,19.3
2018-10-18T11:21:19.980Z,19.34
2018-10-18T11:22:19.529Z,19.31
2018-10-18T11:23:19.517Z,19.31
2018-10-18T11:24:19.882Z,19.45
2018-10-18T11:25:19.278Z,19.47
2018-10-18T11:26:20.049Z,19.54
2018-10-18T11:27:19.500Z,19.47
2018-10-18T11:28:19.011Z,19.62
2018-10-18T11:29:19.281Z,19.7
2018-10-18T11:30:19.675Z,19.73
2018-10-18T11:31:19.533Z,19.71
2018-10-18T11:32:19.420Z,19.73
2018-10-18T11:33:19.879Z,19.69
2018-10-18T11:34:19.673Z,19.7
2018-10-18T11:35:19.289Z,19.67
2018-10-18T11:36:19.582Z,19.67
2018-10-18T11:37:19.283Z,19.76
2018-10-18T11:38:19.135Z,19.76
2018-10-18T11:39:19.307Z,19.67
2018-10-18T11:40:19.048Z,19.69
2018-10-18T11:41:19.313Z,19.67
2018-10-18T11:42:20.080Z,19.74
2018-10-18T11:43:19.298Z,19.79
2018-10-18T11:44:19.689Z,19.71
2018-10-18T11:45:19.287Z,19.67
2018-10-18T11:46:19.580Z,19.74
2018-10-18T11:47:19.307Z,19.73
2018-10-18T11:48:19.775Z,19.79
2018-10-18T11:49:19.305Z,19.81
2018-10-18T11:50:19.493Z,19.91
2018-10-18T11:51:19.569Z,20.03
2018-10-18T11:52:19.573Z,20.02
2018-10-18T11:53:19.331Z,20.09
2018-10-18T11:54:20.455Z,20.18
2018-10-18T11:55:19.044Z,20.18
2018-10-18T11:56:19.483Z,20.28
2018-10-18T11:57:19.573Z,20.28
2018-10-18T11:58:19.558Z,20.39
2018-10-18T11:59:19.494Z,20.41
2018-10-18T12:00:19.309Z,20.37
2018-10-18T12:01:19.982Z,20.39
2018-10-18T12:02:20.052Z,20.41
2018-10-18T12:03:19.063Z,20.4
2018-10-18T12:04:19.066Z,20.37
2018-10-18T12:05:19.434Z,20.47
2018-10-18T12:06:19.340Z,20.41
2018-10-18T12:07:19.319Z,20.43
2018-10-18T12:08:19.074Z,20.4
2018-10-18T12:09:19.322Z,20.5
2018-10-18T12:10:19.583Z,20.48
2018-10-18T12:11:19.856Z,20.59
2018-10-18T12:12:19.611Z,20.62
2018-10-18T12:13:19.341Z,20.67
2018-10-18T12:14:19.496Z,20.72
2018-10-18T12:15:19.337Z,20.74
2018-10-18T12:16:19.341Z,20.7
2018-10-18T12:17:19.465Z,20.78
2018-10-18T12:18:19.602Z,20.78
2018-10-18T12:19:19.062Z,20.69
2018-10-18T12:20:20.045Z,20.7
2018-10-18T12:21:19.348Z,20.69
2018-10-18T12:22:19.619Z,20.74
2018-10-18T12:23:19.638Z,20.77
2018-10-18T12:24:19.367Z,20.82
2018-10-18T12:25:19.607Z,20.84
2018-10-18T12:26:19.102Z,20.8
2018-10-18T12:27:19.365Z,20.88
2018-10-18T12:28:19.623Z,20.88
2018-10-18T12:29:20.218Z,20.85
2018-10-18T12:30:19.621Z,20.81
2018-10-18T12:31:19.625Z,20.92
2018-10-18T12:32:20.006Z,20.88
2018-10-18T12:33:19.626Z,20.87
2018-10-18T12:34:19.626Z,20.88
2018-10-18T12:35:20.016Z,20.96
2018-10-18T12:36:19.625Z,21
2018-10-18T12:37:19.637Z,20.96
2018-10-18T12:38:20.023Z,20.88
2018-10-18T12:39:19.382Z,20.92
2018-10-18T12:40:19.573Z,20.9
2018-10-18T12:41:20.711Z,20.96
2018-10-18T12:42:19.128Z,21.07
2018-10-18T12:43:19.387Z,21.07
2018-10-18T12:44:20.680Z,21.11
2018-10-18T12:45:19.388Z,21
2018-10-18T12:46:19.411Z,21.12
2018-10-18T12:47:19.172Z,21
2018-10-18T12:48:20.173Z,21.07
2018-10-18T12:49:19.388Z,21.15
2018-10-18T12:50:19.970Z,21.12
2018-10-18T12:51:19.397Z,21.09
2018-10-18T12:52:19.404Z,21.09
2018-10-18T12:53:19.419Z,21.17
2018-10-18T12:54:20.090Z,21.2
2018-10-18T12:55:19.658Z,21.15
2018-10-18T12:56:19.337Z,21.14